Time;durP1;ratioP1;P1;durP2;ratioP2;P2;SDS_P1;SDS_P2;PMS_P1;PMS_P2;Temp;Humidity;BMP_temperature;BMP_pressure;BME280_temperature;BME280_humidity;BME280_pressure;Samples;Min_cycle;Max_cycle;Signal;HPM_P1;HPM_P2
2023/04/12 00:04:56;;;;;;;1.65;0.65;;;;;;;19.34;34.59;100398.47;16126176;19;129830;-44
2023/04/12 00:10:18;;;;;;;0.70;0.40;;;;;;;19.32;34.72;100362.66;16121573;19;129643;-43
2023/04/12 00:15:40;;;;;;;1.55;0.63;;;;;;;19.29;34.96;100349.34;16118236;19;131215;-44
2023/04/12 00:21:02;;;;;;;1.63;0.50;;;;;;;19.28;34.60;100330.19;16125678;19;130770;-43
2023/04/12 00:26:24;;;;;;;1.08;0.43;;;;;;;19.25;34.54;100323.25;16118962;19;129222;-42
2023/04/12 00:31:46;;;;;;;0.52;0.40;;;;;;;19.23;34.61;100308.81;16126924;19;132092;-43
2023/04/12 00:37:08;;;;;;;1.10;0.50;;;;;;;19.24;34.77;100288.28;16116854;19;131290;-43
2023/04/12 00:42:30;;;;;;;1.95;0.73;;;;;;;19.22;34.77;100273.84;16118761;19;132119;-41
2023/04/12 00:47:53;;;;;;;1.73;0.50;;;;;;;19.21;35.07;100263.84;16118933;19;129886;-41
2023/04/12 00:53:17;;;;;;;1.83;0.47;;;;;;;19.19;34.96;100233.59;16124954;19;131043;-41
2023/04/12 00:58:40;;;;;;;1.00;0.38;;;;;;;19.18;34.79;100231.09;16119874;19;129289;-42
2023/04/12 01:04:03;;;;;;;1.52;0.38;;;;;;;19.17;34.86;100210.84;16117805;19;130807;-42
2023/04/12 01:09:45;;;;;;;2.17;0.40;;;;;;;19.18;34.67;100200.59;16118669;19;129541;-42
2023/04/12 01:15:12;;;;;;;1.23;0.43;;;;;;;19.16;35.07;100175.09;16115001;19;130908;-42
2023/04/12 01:20:43;;;;;;;1.13;0.50;;;;;;;19.14;34.89;100166.19;16119319;19;130272;-42
2023/04/12 01:26:36;;;;;;;1.00;0.40;;;;;;;19.14;34.80;100144.00;16119479;19;129577;-41
2023/04/12 01:32:01;;;;;;;2.85;0.60;;;;;;;19.12;34.92;100119.34;16115857;19;130675;-42
2023/04/12 01:37:24;;;;;;;0.52;0.35;;;;;;;19.10;34.74;100106.81;16117789;19;129426;-42
2023/04/12 01:42:46;;;;;;;2.55;0.68;;;;;;;19.07;34.64;100097.97;16114652;19;132334;-41
2023/04/12 01:48:10;;;;;;;1.85;0.35;;;;;;;19.07;35.12;100069.41;16113367;19;130446;-41
2023/04/12 01:53:44;;;;;;;0.30;0.22;;;;;;;19.04;34.83;100059.69;16113255;19;129227;-41
2023/04/12 01:59:08;;;;;;;1.35;0.50;;;;;;;19.04;34.71;100056.06;16115594;19;131208;-42
2023/04/12 02:04:31;;;;;;;3.15;0.30;;;;;;;19.02;34.81;100036.09;16115546;19;129882;-42
2023/04/12 02:09:52;;;;;;;0.85;0.30;;;;;;;18.99;35.13;100015.31;16114379;19;131392;-42
2023/04/12 02:15:20;;;;;;;1.27;0.43;;;;;;;18.99;34.83;100004.22;16114356;19;131632;-44
2023/04/12 02:20:42;;;;;;;0.63;0.20;;;;;;;18.98;34.78;99985.09;16113619;19;129785;-42
2023/04/12 02:26:04;;;;;;;0.75;0.30;;;;;;;18.97;35.08;99959.31;16110769;19;129608;-42
2023/04/12 02:31:26;;;;;;;1.10;0.32;;;;;;;18.96;34.84;99948.50;16111477;19;129741;-44
2023/04/12 02:36:49;;;;;;;1.13;0.55;;;;;;;18.94;34.75;99939.63;16113366;19;129711;-41
2023/04/12 02:42:11;;;;;;;0.88;0.28;;;;;;;18.94;35.00;99928.53;16111076;19;132100;-42
2023/04/12 02:47:32;;;;;;;0.57;0.22;;;;;;;;;;16107145;19;129500;-43
2023/04/12 02:52:55;;;;;;;0.98;0.40;;;;;;;18.90;35.24;99919.94;16109782;19;129782;-42
2023/04/12 02:58:17;;;;;;;0.85;0.45;;;;;;;18.89;34.92;99901.66;16111562;19;129340;-45
2023/04/12 03:03:39;;;;;;;0.68;0.30;;;;;;;18.89;35.07;99890.56;16115193;19;129305;-45
2023/04/12 03:09:01;;;;;;;0.55;0.20;;;;;;;18.89;34.98;99882.25;16107974;19;130427;-44
2023/04/12 03:14:23;;;;;;;0.60;0.30;;;;;;;18.87;35.27;99881.69;16123444;19;130554;-43
2023/04/12 03:19:45;;;;;;;0.82;0.20;;;;;;;18.85;35.25;99865.34;16119810;19;130263;-42
2023/04/12 03:25:08;;;;;;;0.45;0.22;;;;;;;18.83;35.01;99856.47;16111256;19;131566;-41
2023/04/12 03:30:30;;;;;;;1.23;0.28;;;;;;;18.82;34.82;99851.22;16110695;19;129697;-42
2023/04/12 03:35:52;;;;;;;0.63;0.30;;;;;;;18.80;35.15;99840.38;16114463;19;130183;-43
2023/04/12 03:41:14;;;;;;;0.40;0.10;;;;;;;18.79;35.34;99829.59;16124810;19;130665;-42
2023/04/12 03:46:36;;;;;;;0.52;0.10;;;;;;;18.77;34.96;99816.81;16122196;19;130899;-44
2023/04/12 03:51:58;;;;;;;0.35;0.20;;;;;;;18.77;35.12;99802.97;16123777;19;129671;-42
2023/04/12 03:57:20;;;;;;;0.73;0.20;;;;;;;18.76;35.28;99790.22;16124910;19;131007;-41
2023/04/12 04:02:42;;;;;;;0.30;0.10;;;;;;;18.75;35.17;99788.56;16122925;19;130327;-44
2023/04/12 04:08:06;;;;;;;0.80;0.30;;;;;;;18.75;35.36;99779.44;16125599;19;129555;-44
2023/04/12 04:13:28;;;;;;;0.70;0.30;;;;;;;18.73;35.06;99767.78;16124278;19;131782;-42
2023/04/12 04:18:50;;;;;;;0.80;0.30;;;;;;;18.72;35.06;99768.88;16121429;19;129291;-42
2023/04/12 04:24:13;;;;;;;0.80;0.25;;;;;;;18.72;35.24;99760.59;16121996;19;130010;-44
2023/04/12 04:29:44;;;;;;;0.60;0.17;;;;;;;18.70;35.42;99755.31;16116835;19;129932;-44
2023/04/12 04:35:06;;;;;;;0.85;0.40;;;;;;;18.70;35.34;99752.56;16122230;19;133438;-42
2023/04/12 04:40:28;;;;;;;0.35;0.20;;;;;;;18.68;35.31;99754.75;16117090;19;129274;-42
2023/04/12 04:45:53;;;;;;;0.10;0.10;;;;;;;18.69;35.61;99756.44;16119658;19;129664;-42
2023/04/12 04:51:15;;;;;;;0.30;0.17;;;;;;;18.67;35.61;99753.09;16118402;19;129085;-42
2023/04/12 04:56:37;;;;;;;0.57;0.20;;;;;;;18.66;35.21;99759.75;16119320;19;130119;-42
2023/04/12 05:01:59;;;;;;;0.32;0.10;;;;;;;18.65;35.24;99749.78;16118624;19;131753;-42
2023/04/12 05:07:21;;;;;;;0.47;0.20;;;;;;;18.66;35.71;99748.66;16118709;19;132603;-44
2023/04/12 05:12:43;;;;;;;0.35;0.20;;;;;;;18.88;35.16;99736.47;16117906;19;129865;-42
2023/04/12 05:18:04;;;;;;;0.73;0.30;;;;;;;19.15;35.34;99732.59;16120118;19;131608;-42
2023/04/12 05:23:26;;;;;;;2.40;0.35;;;;;;;19.34;34.86;99733.69;16118184;19;132043;-44
2023/04/12 05:28:48;;;;;;;7.93;0.70;;;;;;;19.42;34.65;99732.28;16116821;19;130813;-43
2023/04/12 05:34:10;;;;;;;4.90;0.40;;;;;;;19.45;34.93;99740.06;16119640;19;129484;-41
2023/04/12 05:39:32;;;;;;;8.43;0.40;;;;;;;19.45;35.23;99736.44;16114105;19;131206;-42
2023/04/12 05:44:55;;;;;;;2.03;0.30;;;;;;;19.41;34.91;99743.66;16118735;19;130433;-42
2023/04/12 05:50:17;;;;;;;6.32;0.68;;;;;;;19.37;35.25;99735.09;16118545;19;129740;-41
2023/04/12 05:55:39;;;;;;;6.13;0.40;;;;;;;19.30;35.22;99737.31;16116248;19;130796;-41
2023/04/12 06:01:01;;;;;;;1.83;0.40;;;;;;;19.25;35.58;99729.00;16100121;19;130451;-44
2023/04/12 06:06:23;;;;;;;5.38;0.40;;;;;;;19.19;35.75;99730.94;16117662;19;130979;-44
2023/04/12 06:11:45;;;;;;;4.63;0.52;;;;;;;19.14;35.45;99730.91;16115985;19;129445;-43
2023/04/12 06:17:07;;;;;;;1.90;0.30;;;;;;;19.11;35.47;99734.25;16118494;19;129913;-41
2023/04/12 06:22:28;;;;;;;2.55;0.30;;;;;;;19.08;35.94;99746.72;16118479;19;131216;-41
2023/04/12 06:27:50;;;;;;;1.08;0.20;;;;;;;19.06;35.71;99741.47;16117086;19;129521;-42
2023/04/12 06:33:12;;;;;;;6.85;0.38;;;;;;;19.04;35.91;99745.63;16114496;19;129397;-44
2023/04/12 06:38:34;;;;;;;3.10;0.40;;;;;;;19.02;35.58;99736.75;16116801;19;129942;-41
2023/04/12 06:43:56;;;;;;;0.85;0.30;;;;;;;18.98;35.92;99738.44;16114164;19;130830;-44
2023/04/12 06:49:18;;;;;;;3.28;0.50;;;;;;;18.97;35.90;99745.88;16112722;19;130284;-44
2023/04/12 06:54:41;;;;;;;0.75;0.30;;;;;;;19.10;36.19;99743.66;16113533;19;131263;-43
2023/04/12 07:00:03;;;;;;;2.00;0.50;;;;;;;19.22;36.03;99741.47;16114519;19;129721;-42
2023/04/12 07:05:25;;;;;;;1.27;0.20;;;;;;;19.36;35.81;99731.47;16111967;19;128960;-43
2023/04/12 07:10:52;;;;;;;1.30;0.25;;;;;;;19.50;35.36;99726.19;16118471;19;129604;-41
2023/04/12 07:16:15;;;;;;;3.53;0.30;;;;;;;19.60;35.50;99718.94;16127996;19;129697;-43
2023/04/12 07:21:37;;;;;;;5.07;0.40;;;;;;;19.63;35.06;99730.28;16127621;19;129694;-42
2023/04/12 07:26:59;;;;;;;2.28;0.50;;;;;;;19.72;35.39;99729.69;16125171;19;129858;-42
2023/04/12 07:32:22;;;;;;;1.30;0.35;;;;;;;19.78;35.25;99721.06;16127365;19;134339;-42
2023/04/12 07:37:44;;;;;;;6.93;0.50;;;;;;;19.83;35.24;99723.00;16127887;19;129647;-44
2023/04/12 07:43:05;;;;;;;1.52;0.32;;;;;;;19.87;35.21;99726.88;16127659;19;130330;-44
2023/04/12 07:48:27;;;;;;;2.83;0.40;;;;;;;19.90;35.26;99723.53;16123493;19;129465;-42
2023/04/12 07:53:50;;;;;;;1.33;0.38;;;;;;;19.93;34.81;99736.00;16127889;19;129716;-42
2023/04/12 07:59:12;;;;;;;0.98;0.25;;;;;;;19.93;34.96;99742.41;16119951;19;130154;-44
2023/04/12 08:04:34;;;;;;;5.22;0.40;;;;;;;19.94;35.03;99723.78;16123752;19;130114;-44
2023/04/12 08:09:56;;;;;;;2.10;0.40;;;;;;;19.95;35.19;99731.81;16125778;19;131688;-42
2023/04/12 08:15:18;;;;;;;2.15;0.40;;;;;;;19.98;34.90;99745.16;16124422;19;130139;-43
2023/04/12 08:20:41;;;;;;;3.50;0.40;;;;;;;19.99;35.16;99738.50;16124780;19;129493;-41
2023/04/12 08:26:03;;;;;;;3.88;0.50;;;;;;;20.00;34.97;99739.31;16124160;19;130201;-43
2023/04/12 08:31:25;;;;;;;2.15;0.40;;;;;;;19.99;35.19;99737.66;16125267;19;129558;-43
2023/04/12 08:36:46;;;;;;;2.15;0.50;;;;;;;20.02;35.16;99745.44;16122351;19;129646;-42
2023/04/12 08:42:10;;;;;;;1.90;0.50;;;;;;;20.06;35.05;99732.66;16123266;19;129512;-43
2023/04/12 08:47:40;;;;;;;1.75;0.40;;;;;;;20.14;35.19;99748.69;16120788;19;129423;-43
2023/04/12 08:53:03;;;;;;;2.35;0.28;;;;;;;20.18;35.09;99746.22;16124102;19;129582;-42
2023/04/12 08:58:25;;;;;;;2.67;0.80;;;;;;;20.19;34.79;99733.97;16121412;19;129871;-43
2023/04/12 09:03:48;;;;;;;3.03;0.40;;;;;;;20.18;34.81;99724.00;16120983;19;130054;-44
2023/04/12 09:09:10;;;;;;;4.10;0.45;;;;;;;20.16;35.16;99719.81;16120580;19;129229;-45
2023/04/12 09:14:32;;;;;;;4.15;0.40;;;;;;;20.15;34.84;99724.56;16115332;19;129562;-45
2023/04/12 09:19:55;;;;;;;2.40;0.85;;;;;;;20.15;35.18;99719.00;16116004;19;129362;-42
2023/04/12 09:25:17;;;;;;;3.72;1.20;;;;;;;20.16;34.97;99698.47;16120603;19;130723;-43
2023/04/12 09:30:42;;;;;;;3.80;0.60;;;;;;;20.22;34.91;99697.28;16120408;19;130560;-42
2023/04/12 09:36:05;;;;;;;3.40;0.60;;;;;;;20.27;34.91;99711.16;16116789;19;128991;-46
2023/04/12 09:41:30;;;;;;;4.32;0.85;;;;;;;20.31;34.80;99716.97;16115782;19;131327;-45
2023/04/12 09:46:52;;;;;;;3.10;0.75;;;;;;;20.29;35.02;99719.19;16121059;19;130438;-45
2023/04/12 09:52:30;;;;;;;2.10;0.55;;;;;;;20.23;34.91;99723.94;16116806;19;129550;-43
2023/04/12 09:57:54;;;;;;;1.70;0.70;;;;;;;20.20;34.79;99727.28;16118930;19;129757;-44
2023/04/12 10:03:17;;;;;;;3.20;0.40;;;;;;;20.19;35.08;99736.72;16110912;19;131000;-42
2023/04/12 10:08:40;;;;;;;4.43;1.00;;;;;;;20.18;35.21;99726.78;16113281;19;129519;-42
2023/04/12 10:14:02;;;;;;;2.05;0.63;;;;;;;20.17;34.90;99736.22;16113103;19;130964;-41
2023/04/12 10:19:26;;;;;;;5.40;0.82;;;;;;;20.20;34.73;99723.69;16113652;19;129952;-44
2023/04/12 10:24:48;;;;;;;7.50;1.02;;;;;;;20.23;34.79;99725.91;16111101;19;129525;-44
2023/04/12 10:30:19;;;;;;;9.10;1.58;;;;;;;20.28;34.78;99723.94;16110842;19;131500;-40
2023/04/12 10:35:47;;;;;;;9.32;1.63;;;;;;;20.27;35.40;99722.28;16116111;19;133676;-42
2023/04/12 10:41:13;;;;;;;5.97;1.15;;;;;;;20.25;35.04;99724.50;16115431;19;130210;-45
2023/04/12 10:46:37;;;;;;;12.07;1.17;;;;;;;20.23;35.54;99725.91;16122780;19;130454;-44
2023/04/12 10:52:01;;;;;;;;;;;;;;;20.19;35.38;99717.28;16132537;19;128939;-41
2023/04/12 10:57:43;;;;;;;5.65;1.20;;;;;;;20.21;35.15;99717.84;16127524;19;129459;-42
2023/04/12 11:03:10;;;;;;;5.32;1.10;;;;;;;20.17;35.18;99727.03;16129657;19;129480;-40
2023/04/12 11:08:38;;;;;;;7.32;1.13;;;;;;;20.13;35.55;99726.78;16128859;19;129605;-43
2023/04/12 11:14:01;;;;;;;6.60;1.38;;;;;;;20.10;35.61;99730.13;16127984;19;129430;-42
2023/04/12 11:19:23;;;;;;;5.53;1.17;;;;;;;20.08;35.75;99743.47;16128243;19;129323;-44
2023/04/12 11:24:50;;;;;;;3.78;0.88;;;;;;;20.06;35.77;99749.31;16130505;19;130543;-43
2023/04/12 11:30:12;;;;;;;6.43;0.88;;;;;;;20.09;35.73;99725.69;16128461;19;130529;-42
2023/04/12 11:35:34;;;;;;;3.67;0.80;;;;;;;20.11;35.44;99723.47;16128282;19;129856;-41
2023/04/12 11:40:56;;;;;;;4.40;1.00;;;;;;;20.12;35.32;99719.56;16130189;19;129924;-42
2023/04/12 11:46:18;;;;;;;5.88;1.08;;;;;;;20.13;35.61;99722.03;16127143;19;130898;-42
2023/04/12 11:51:40;;;;;;;3.67;0.77;;;;;;;20.14;35.31;99718.16;16126034;19;130524;-41
2023/04/12 11:57:02;;;;;;;3.35;0.95;;;;;;;20.15;35.26;99710.69;16126738;19;130663;-40
2023/04/12 12:02:26;;;;;;;4.65;1.00;;;;;;;20.14;35.46;99712.59;16125324;19;133273;-41
2023/04/12 12:07:55;;;;;;;5.90;0.70;;;;;;;20.11;35.63;99724.31;16122818;19;129426;-41
2023/04/12 12:13:20;;;;;;;3.22;0.68;;;;;;;20.07;35.11;99728.75;16127136;19;131143;-42
2023/04/12 12:18:43;;;;;;;3.25;0.70;;;;;;;20.03;35.65;99771.25;16124325;19;130039;-41
2023/04/12 12:24:05;;;;;;;2.47;0.65;;;;;;;19.98;35.82;99789.56;16126160;19;129765;-43
2023/04/12 12:29:33;;;;;;;2.72;0.95;;;;;;;19.97;35.34;99781.53;16122778;19;130065;-41
2023/04/12 12:34:57;;;;;;;2.85;0.80;;;;;;;19.92;35.57;99771.28;16122452;19;130432;-41
2023/04/12 12:40:28;;;;;;;3.45;0.80;;;;;;;19.93;35.91;99766.53;16123641;19;129385;-42
2023/04/12 12:45:50;;;;;;;1.70;0.57;;;;;;;19.93;35.77;99772.09;16124182;19;129460;-42
2023/04/12 12:51:16;;;;;;;5.07;0.70;;;;;;;19.96;35.69;99763.22;16122863;19;129525;-44
2023/04/12 12:56:38;;;;;;;3.70;0.90;;;;;;;20.01;35.75;99765.97;16120788;19;129938;-40
2023/04/12 13:02:00;;;;;;;1.42;0.40;;;;;;;20.04;35.52;99765.41;16122166;19;129679;-42
2023/04/12 13:07:22;;;;;;;2.95;0.80;;;;;;;20.09;35.55;99748.75;16121375;19;129484;-41
2023/04/12 13:12:44;;;;;;;2.65;0.90;;;;;;;20.16;35.79;99751.22;16120922;19;129989;-41
2023/04/12 13:18:06;;;;;;;2.22;0.60;;;;;;;20.20;35.49;99732.84;16119939;19;129606;-41
2023/04/12 13:23:29;;;;;;;2.45;0.77;;;;;;;20.26;35.55;99731.72;16116206;19;131355;-42
2023/04/12 13:28:50;;;;;;;3.53;0.65;;;;;;;20.31;35.18;99722.50;16121275;19;130745;-41
2023/04/12 13:34:12;;;;;;;1.83;0.50;;;;;;;20.36;35.29;99713.31;16119585;19;129708;-41
2023/04/12 13:39:35;;;;;;;2.90;0.50;;;;;;;20.37;35.48;99714.97;16117492;19;131077;-42
2023/04/12 13:44:57;;;;;;;3.30;1.00;;;;;;;20.37;35.19;99726.91;16118790;19;129760;-44
2023/04/12 13:50:18;;;;;;;2.63;0.70;;;;;;;20.37;35.12;99762.19;16120687;19;129653;-43
2023/04/12 13:55:40;;;;;;;2.88;0.60;;;;;;;20.35;35.23;99789.44;16120559;19;129453;-42
2023/04/12 14:01:02;;;;;;;3.00;0.70;;;;;;;20.33;35.45;99783.31;16118173;19;130396;-42
2023/04/12 14:06:25;;;;;;;2.08;0.60;;;;;;;20.31;35.05;99802.25;16117049;19;130741;-41
2023/04/12 14:11:48;;;;;;;1.13;0.45;;;;;;;20.31;35.25;99788.34;16115354;19;129305;-41
2023/04/12 14:17:10;;;;;;;1.92;0.40;;;;;;;20.29;35.35;99789.47;16118217;19;128986;-42
2023/04/12 14:22:32;;;;;;;2.72;0.47;;;;;;;20.29;35.18;99789.47;16113797;19;129501;-42
2023/04/12 14:27:54;;;;;;;2.42;0.60;;;;;;;20.29;35.13;99774.75;16114208;19;129956;-41
2023/04/12 14:33:16;;;;;;;0.85;0.32;;;;;;;20.31;35.51;99769.72;16113336;19;130944;-43
2023/04/12 14:38:38;;;;;;;1.05;0.32;;;;;;;20.31;35.29;99755.03;16113999;19;130271;-43
2023/04/12 14:44:00;;;;;;;2.40;0.50;;;;;;;20.32;35.49;99740.84;16114120;19;129182;-41
2023/04/12 14:49:22;;;;;;;1.48;0.60;;;;;;;20.34;35.30;99726.66;16110730;19;131422;-41
2023/04/12 14:54:44;;;;;;;0.50;0.30;;;;;;;20.34;35.49;99729.44;16113176;19;132041;-41
2023/04/12 15:00:12;;;;;;;0.65;0.30;;;;;;;20.38;35.07;99716.66;16114221;19;129691;-40
2023/04/12 15:05:35;;;;;;;1.10;0.40;;;;;;;20.42;35.24;99712.19;16113512;19;130484;-43
2023/04/12 15:10:56;;;;;;;1.77;0.20;;;;;;;20.44;35.02;99709.91;16110914;19;131796;-41
2023/04/12 15:16:18;;;;;;;1.23;0.45;;;;;;;20.45;35.10;99717.13;16109504;19;130641;-41
2023/04/12 15:21:42;;;;;;;2.88;0.47;;;;;;;20.40;34.93;99715.22;16110078;19;129592;-41
2023/04/12 15:27:04;;;;;;;1.23;0.40;;;;;;;20.36;35.37;99710.53;16111569;19;129608;-42
2023/04/12 15:32:27;;;;;;;1.80;0.63;;;;;;;20.34;35.02;99710.84;16120243;19;129735;-41
2023/04/12 15:37:50;;;;;;;4.25;0.40;;;;;;;20.34;35.17;99716.41;16129251;19;130778;-43
2023/04/12 15:43:12;;;;;;;3.15;0.60;;;;;;;20.35;35.12;99712.50;16125267;19;130227;-44
2023/04/12 15:48:37;;;;;;;5.50;0.50;;;;;;;20.34;35.02;99707.22;16124620;19;129828;-42
2023/04/12 15:53:59;;;;;;;3.07;0.70;;;;;;;20.33;34.69;99700.00;16125034;19;129400;-41
2023/04/12 15:59:21;;;;;;;2.60;0.25;;;;;;;20.29;34.64;99703.38;16126466;19;129774;-40
2023/04/12 16:04:44;;;;;;;1.77;0.30;;;;;;;20.26;34.99;99706.72;16124297;19;129859;-40
2023/04/12 16:10:07;;;;;;;2.13;0.40;;;;;;;20.22;35.12;99696.47;16125197;19;129758;-42
2023/04/12 16:15:29;;;;;;;1.13;0.28;;;;;;;20.17;35.17;99694.56;16117709;19;131628;-43
2023/04/12 16:20:51;;;;;;;5.35;0.40;;;;;;;20.15;34.80;99696.78;16121291;19;130707;-42
2023/04/12 16:26:16;;;;;;;6.00;0.60;;;;;;;20.08;35.21;99697.09;16120967;19;129922;-41
2023/04/12 16:31:38;;;;;;;5.53;0.65;;;;;;;20.06;35.22;99701.28;16122415;19;130050;-41
2023/04/12 16:37:00;;;;;;;5.07;0.70;;;;;;;20.07;34.95;99700.16;16122127;19;129562;-41
2023/04/12 16:42:22;;;;;;;5.32;0.73;;;;;;;20.12;35.04;99700.13;16116512;19;129529;-42
2023/04/12 16:47:45;;;;;;;3.28;0.70;;;;;;;20.19;34.74;99699.81;16116791;19;129919;-43
2023/04/12 16:53:07;;;;;;;1.90;0.50;;;;;;;20.31;34.42;99697.53;16119536;19;129661;-42
2023/04/12 16:58:30;;;;;;;2.90;0.75;;;;;;;20.40;34.59;99697.75;16120380;19;129790;-41
2023/04/12 17:03:52;;;;;;;2.95;0.68;;;;;;;20.45;34.49;99686.59;16119496;19;131357;-41
2023/04/12 17:09:14;;;;;;;3.33;0.55;;;;;;;20.50;34.25;99697.66;16119347;19;129910;-41
2023/04/12 17:14:36;;;;;;;1.88;0.77;;;;;;;20.53;34.62;99702.66;16112068;19;129355;-42
2023/04/12 17:19:58;;;;;;;0.82;0.40;;;;;;;20.61;34.49;99692.88;16120226;19;129522;-41
2023/04/12 17:25:20;;;;;;;1.40;0.50;;;;;;;20.71;34.03;99683.59;16117788;19;130771;-43
2023/04/12 17:30:46;;;;;;;5.35;0.60;;;;;;;20.79;34.36;99688.59;16116839;19;130782;-44
2023/04/12 17:36:08;;;;;;;4.50;0.75;;;;;;;20.87;34.16;99689.88;16115775;19;129785;-45
2023/04/12 17:41:32;;;;;;;6.10;0.70;;;;;;;20.95;33.98;99686.50;16111391;19;132030;-43
2023/04/12 17:46:55;;;;;;;1.95;0.70;;;;;;;20.98;34.00;99668.38;16113806;19;130668;-43
2023/04/12 17:52:17;;;;;;;3.72;0.68;;;;;;;20.98;34.09;99671.16;16111998;19;129992;-44
2023/04/12 17:57:40;;;;;;;5.28;0.70;;;;;;;20.98;34.13;99668.38;16111046;19;130884;-44
2023/04/12 18:03:02;;;;;;;4.47;0.70;;;;;;;20.95;34.25;99657.84;16119172;19;130597;-45
2023/04/12 18:08:24;;;;;;;4.15;0.60;;;;;;;20.87;33.99;99681.53;16115011;19;131018;-43
2023/04/12 18:13:46;;;;;;;3.60;0.70;;;;;;;20.76;34.03;99666.94;16111430;19;135025;-44
2023/04/12 18:19:10;;;;;;;5.00;0.88;;;;;;;20.68;34.00;99653.59;16111039;19;129605;-47
2023/04/12 18:24:32;;;;;;;3.55;0.50;;;;;;;20.65;34.25;99648.66;16109408;19;129886;-46
2023/04/12 18:29:55;;;;;;;2.95;0.65;;;;;;;20.66;33.95;99658.66;16110191;19;130931;-44
2023/04/12 18:35:17;;;;;;;2.47;0.70;;;;;;;20.70;34.28;99663.34;16100369;19;130421;-44
2023/04/12 18:40:39;;;;;;;2.08;0.43;;;;;;;20.74;33.83;99658.84;16109441;19;130271;-44
2023/04/12 18:46:01;;;;;;;3.90;0.50;;;;;;;20.78;33.95;99675.81;16107549;19;131535;-42
2023/04/12 18:51:23;;;;;;;5.18;0.80;;;;;;;20.82;33.67;99676.06;16105391;19;131094;-43
2023/04/12 18:56:45;;;;;;;2.25;0.45;;;;;;;20.84;34.08;99673.81;16110966;19;131056;-44
2023/04/12 19:02:07;;;;;;;1.15;0.38;;;;;;;20.86;33.61;99674.34;16105811;19;129982;-43
2023/04/12 19:07:29;;;;;;;2.90;0.45;;;;;;;20.84;33.99;99663.50;16115325;19;131628;-43
2023/04/12 19:12:52;;;;;;;4.88;0.60;;;;;;;20.83;34.05;99650.72;16125500;19;131264;-44
2023/04/12 19:18:14;;;;;;;7.50;0.88;;;;;;;20.92;34.32;99642.59;16125895;19;129775;-45
2023/04/12 19:23:36;;;;;;;3.10;0.60;;;;;;;21.10;34.23;99654.91;16123934;19;130522;-43
2023/04/12 19:28:58;;;;;;;7.50;0.88;;;;;;;21.25;34.09;99661.44;16125508;19;131042;-43
2023/04/12 19:34:20;;;;;;;9.82;0.95;;;;;;;21.38;34.18;99652.41;16125581;19;130633;-44
2023/04/12 19:39:42;;;;;;;8.02;0.98;;;;;;;21.48;34.33;99646.69;16126664;19;130969;-44
2023/04/12 19:45:04;;;;;;;9.48;1.10;;;;;;;21.50;33.97;99641.72;16125038;19;130853;-41
2023/04/12 19:50:29;;;;;;;14.25;1.25;;;;;;;21.52;34.04;99633.91;16124832;19;131821;-41
2023/04/12 19:55:55;;;;;;;11.00;1.20;;;;;;;21.47;34.04;99620.00;16126565;19;130516;-43
2023/04/12 20:01:17;;;;;;;13.93;1.52;;;;;;;21.40;34.36;99607.56;16120591;19;130369;-42
2023/04/12 20:06:40;;;;;;;10.10;1.25;;;;;;;21.31;34.69;99599.06;16124517;19;129901;-47
2023/04/12 20:12:02;;;;;;;5.63;1.02;;;;;;;21.21;34.38;99595.28;16120536;19;129418;-44
2023/04/12 20:17:24;;;;;;;15.45;1.25;;;;;;;21.12;34.65;99585.94;16123505;19;130054;-41
2023/04/12 20:22:50;;;;;;;11.02;2.00;;;;;;;21.05;34.89;99577.09;16122705;19;131361;-42
2023/04/12 20:28:13;;;;;;;11.70;1.30;;;;;;;20.94;34.54;99562.50;16122216;19;131132;-42
2023/04/12 20:33:35;;;;;;;13.32;1.20;;;;;;;20.83;35.07;99556.22;16113134;19;131917;-42
2023/04/12 20:38:57;;;;;;;10.93;1.23;;;;;;;20.74;34.84;99536.53;16120136;19;130737;-43
2023/04/12 20:44:20;;;;;;;13.73;1.30;;;;;;;20.65;34.71;99548.63;16119307;19;129701;-42
2023/04/12 20:49:42;;;;;;;7.38;0.75;;;;;;;20.54;35.03;99543.16;16117711;19;129630;-43
2023/04/12 20:55:06;;;;;;;5.75;1.02;;;;;;;20.44;34.55;99521.03;16090432;19;131268;-46
2023/04/12 21:00:28;;;;;;;11.27;0.93;;;;;;;20.34;34.88;99515.56;16106411;19;129209;-43
2023/04/12 21:05:51;;;;;;;4.55;0.98;;;;;;;20.26;34.62;99504.00;16105296;19;130907;-45
2023/04/12 21:11:13;;;;;;;6.43;0.70;;;;;;;20.17;34.62;99494.66;16117840;19;129282;-44
2023/04/12 21:16:40;;;;;;;5.72;0.65;;;;;;;20.11;34.56;99495.78;16115149;19;130129;-42
2023/04/12 21:22:02;;;;;;;5.20;0.80;;;;;;;20.03;34.54;99488.91;16119612;19;129347;-44
2023/04/12 21:27:25;;;;;;;5.75;0.50;;;;;;;19.97;34.41;99495.63;16114561;19;129907;-46
2023/04/12 21:32:47;;;;;;;6.18;0.90;;;;;;;19.93;34.71;99483.41;16114702;19;130947;-45
2023/04/12 21:38:09;;;;;;;4.35;0.57;;;;;;;19.88;34.30;99473.19;16114092;19;130852;-43
2023/04/12 21:43:31;;;;;;;5.25;0.75;;;;;;;19.84;34.26;99464.63;16114787;19;129697;-44
2023/04/12 21:48:53;;;;;;;2.30;0.50;;;;;;;19.80;34.44;99460.78;16115657;19;131389;-44
2023/04/12 21:54:15;;;;;;;2.38;0.30;;;;;;;19.76;34.13;99461.63;16117787;19;129905;-43
2023/04/12 21:59:37;;;;;;;1.77;0.60;;;;;;;19.69;34.52;99448.91;16113127;19;130955;-43
2023/04/12 22:04:59;;;;;;;3.70;1.00;;;;;;;19.63;34.41;99441.75;16114625;19;130007;-44
2023/04/12 22:10:21;;;;;;;2.97;0.50;;;;;;;19.60;34.36;99434.00;16112834;19;130149;-44
2023/04/12 22:15:44;;;;;;;1.67;0.30;;;;;;;19.55;33.98;99434.06;16112612;19;131222;-44
2023/04/12 22:21:06;;;;;;;3.38;0.50;;;;;;;19.52;33.94;99412.44;16114873;19;129341;-41
2023/04/12 22:26:30;;;;;;;0.50;0.30;;;;;;;19.50;33.87;99417.44;16106266;19;129568;-45
2023/04/12 22:31:52;;;;;;;2.65;0.47;;;;;;;19.46;33.96;99419.13;16110867;19;129655;-42
2023/04/12 22:37:14;;;;;;;1.05;0.35;;;;;;;19.43;33.67;99439.16;16114971;19;131386;-43
2023/04/12 22:42:36;;;;;;;0.85;0.40;;;;;;;19.38;33.54;99426.16;16106956;19;130909;-43
2023/04/12 22:47:58;;;;;;;2.03;0.50;;;;;;;19.34;33.57;99441.69;16110734;19;129478;-45
2023/04/12 22:53:21;;;;;;;1.90;0.60;;;;;;;19.30;33.47;99429.50;16109109;19;130641;-43
2023/04/12 22:58:43;;;;;;;1.45;0.35;;;;;;;19.26;33.74;99420.94;16107599;19;131407;-42
2023/04/12 23:04:05;;;;;;;0.88;0.47;;;;;;;19.25;33.58;99418.47;16104045;19;129863;-44
2023/04/12 23:09:27;;;;;;;2.67;0.35;;;;;;;19.22;33.22;99408.75;16106735;19;132292;-44
2023/04/12 23:14:49;;;;;;;0.60;0.30;;;;;;;19.21;33.52;99402.41;16108043;19;130822;-43
2023/04/12 23:20:13;;;;;;;3.60;0.40;;;;;;;19.18;33.58;99386.31;16108308;19;129899;-42
2023/04/12 23:25:37;;;;;;;0.75;0.28;;;;;;;19.16;33.63;99380.22;16108635;19;130620;-45
2023/04/12 23:31:00;;;;;;;1.23;0.50;;;;;;;19.14;33.50;99389.94;16107343;19;130334;-43
2023/04/12 23:36:24;;;;;;;0.95;0.38;;;;;;;19.12;33.17;99384.69;16109996;19;130894;-42
2023/04/12 23:41:46;;;;;;;2.22;0.30;;;;;;;19.10;33.36;99377.78;16110295;19;133345;-42
2023/04/12 23:47:08;;;;;;;0.52;0.20;;;;;;;19.09;33.31;99385.28;16108673;19;129611;-44
2023/04/12 23:52:31;;;;;;;1.30;0.30;;;;;;;19.06;33.32;99386.69;16114487;19;129806;-41
2023/04/12 23:57:53;;;;;;;1.35;0.30;;;;;;;19.04;33.26;99386.13;16120738;19;130193;-46
